sensor_id;sensor_type;location;lat;lon;timestamp;temperature;humidity
26623;DHT22;14254;50.968;5.366;2022-12-18T00:01:44;-6.70;99.90
26623;DHT22;14254;50.968;5.366;2022-12-18T00:04:20;-6.60;99.90
26623;DHT22;14254;50.968;5.366;2022-12-18T00:06:46;-6.50;99.90
26623;DHT22;14254;50.968;5.366;2022-12-18T00:09:11;-6.60;99.90
26623;DHT22;14254;50.968;5.366;2022-12-18T00:11:37;-6.60;99.90
26623;DHT22;14254;50.968;5.366;2022-12-18T00:14:03;-6.50;99.90
26623;DHT22;14254;50.968;5.366;2022-12-18T00:16:29;-6.40;99.90
26623;DHT22;14254;50.968;5.366;2022-12-18T00:18:57;-6.40;99.90
26623;DHT22;14254;50.968;5.366;2022-12-18T00:21:23;-6.30;99.90
26623;DHT22;14254;50.968;5.366;2022-12-18T00:23:49;-6.40;99.90
26623;DHT22;14254;50.968;5.366;2022-12-18T00:26:27;-6.30;99.90
26623;DHT22;14254;50.968;5.366;2022-12-18T00:28:53;-6.30;99.90
26623;DHT22;14254;50.968;5.366;2022-12-18T00:31:21;-6.00;99.90
26623;DHT22;14254;50.968;5.366;2022-12-18T00:33:47;-6.40;99.90
26623;DHT22;14254;50.968;5.366;2022-12-18T00:36:18;-6.40;99.90
26623;DHT22;14254;50.968;5.366;2022-12-18T00:38:45;-6.40;99.90
26623;DHT22;14254;50.968;5.366;2022-12-18T00:41:12;-6.50;99.90
26623;DHT22;14254;50.968;5.366;2022-12-18T00:43:38;-6.60;99.90
26623;DHT22;14254;50.968;5.366;2022-12-18T00:46:05;-6.60;99.90
26623;DHT22;14254;50.968;5.366;2022-12-18T00:48:31;-6.60;99.90
26623;DHT22;14254;50.968;5.366;2022-12-18T00:50:57;-6.60;99.90
26623;DHT22;14254;50.968;5.366;2022-12-18T00:53:22;-6.60;99.90
26623;DHT22;14254;50.968;5.366;2022-12-18T00:55:48;-6.50;99.90
26623;DHT22;14254;50.968;5.366;2022-12-18T00:58:15;-6.90;99.90
26623;DHT22;14254;50.968;5.366;2022-12-18T01:00:42;-7.00;99.90
26623;DHT22;14254;50.968;5.366;2022-12-18T01:03:09;-7.00;99.90
26623;DHT22;14254;50.968;5.366;2022-12-18T01:05:39;-6.90;99.90
26623;DHT22;14254;50.968;5.366;2022-12-18T01:08:05;-6.90;99.90
26623;DHT22;14254;50.968;5.366;2022-12-18T01:10:31;-7.10;99.90
26623;DHT22;14254;50.968;5.366;2022-12-18T01:12:56;-7.10;99.90
26623;DHT22;14254;50.968;5.366;2022-12-18T01:15:22;-6.90;99.90
26623;DHT22;14254;50.968;5.366;2022-12-18T01:17:48;-6.80;99.90
26623;DHT22;14254;50.968;5.366;2022-12-18T01:20:13;-6.80;99.90
26623;DHT22;14254;50.968;5.366;2022-12-18T01:22:39;-6.70;99.90
26623;DHT22;14254;50.968;5.366;2022-12-18T01:25:05;-6.70;99.90
26623;DHT22;14254;50.968;5.366;2022-12-18T01:27:32;-6.90;99.90
26623;DHT22;14254;50.968;5.366;2022-12-18T01:29:58;-7.00;99.90
26623;DHT22;14254;50.968;5.366;2022-12-18T01:32:24;-6.90;99.90
26623;DHT22;14254;50.968;5.366;2022-12-18T01:34:50;-6.90;99.90
26623;DHT22;14254;50.968;5.366;2022-12-18T01:37:15;-6.80;99.90
26623;DHT22;14254;50.968;5.366;2022-12-18T01:39:41;-6.80;99.90
26623;DHT22;14254;50.968;5.366;2022-12-18T01:42:15;-7.00;99.90
26623;DHT22;14254;50.968;5.366;2022-12-18T01:47:52;-7.10;99.90
26623;DHT22;14254;50.968;5.366;2022-12-18T01:50:27;-7.10;99.90
26623;DHT22;14254;50.968;5.366;2022-12-18T01:52:55;-7.10;99.90
26623;DHT22;14254;50.968;5.366;2022-12-18T01:55:25;-7.00;99.90
26623;DHT22;14254;50.968;5.366;2022-12-18T01:57:54;-7.00;99.90
26623;DHT22;14254;50.968;5.366;2022-12-18T02:00:22;-6.60;99.90
26623;DHT22;14254;50.968;5.366;2022-12-18T02:02:48;-7.00;99.90
26623;DHT22;14254;50.968;5.366;2022-12-18T02:05:17;-7.00;99.90
26623;DHT22;14254;50.968;5.366;2022-12-18T02:16:20;-7.20;99.90
26623;DHT22;14254;50.968;5.366;2022-12-18T02:18:53;-7.10;99.90
26623;DHT22;14254;50.968;5.366;2022-12-18T02:21:42;-7.10;99.90
26623;DHT22;14254;50.968;5.366;2022-12-18T02:24:35;-7.00;99.90
26623;DHT22;14254;50.968;5.366;2022-12-18T02:27:09;-6.90;99.90
26623;DHT22;14254;50.968;5.366;2022-12-18T02:29:40;-6.90;99.90
26623;DHT22;14254;50.968;5.366;2022-12-18T02:32:11;-7.20;99.90
26623;DHT22;14254;50.968;5.366;2022-12-18T02:34:39;-7.40;99.90
26623;DHT22;14254;50.968;5.366;2022-12-18T02:37:09;-7.30;99.90
26623;DHT22;14254;50.968;5.366;2022-12-18T02:39:38;-7.30;99.90
26623;DHT22;14254;50.968;5.366;2022-12-18T02:42:04;-7.30;99.90
26623;DHT22;14254;50.968;5.366;2022-12-18T02:44:43;-7.30;99.90
26623;DHT22;14254;50.968;5.366;2022-12-18T02:47:14;-7.30;99.90
26623;DHT22;14254;50.968;5.366;2022-12-18T02:57:59;-7.30;99.90
26623;DHT22;14254;50.968;5.366;2022-12-18T03:00:33;-7.40;99.90
26623;DHT22;14254;50.968;5.366;2022-12-18T03:03:13;-7.10;99.90
26623;DHT22;14254;50.968;5.366;2022-12-18T03:08:28;-7.80;99.90
26623;DHT22;14254;50.968;5.366;2022-12-18T03:11:05;-7.70;99.90
26623;DHT22;14254;50.968;5.366;2022-12-18T03:13:52;-7.70;99.90
26623;DHT22;14254;50.968;5.366;2022-12-18T03:16:25;-7.60;99.90
26623;DHT22;14254;50.968;5.366;2022-12-18T03:18:59;-7.50;99.90
26623;DHT22;14254;50.968;5.366;2022-12-18T03:21:34;-7.50;99.90
26623;DHT22;14254;50.968;5.366;2022-12-18T03:24:06;-7.50;99.90
26623;DHT22;14254;50.968;5.366;2022-12-18T03:26:32;-7.50;99.90
26623;DHT22;14254;50.968;5.366;2022-12-18T03:29:03;-7.50;99.90
26623;DHT22;14254;50.968;5.366;2022-12-18T03:31:32;-7.50;99.90
26623;DHT22;14254;50.968;5.366;2022-12-18T03:34:01;-7.40;99.90
26623;DHT22;14254;50.968;5.366;2022-12-18T03:36:30;-7.30;99.90
26623;DHT22;14254;50.968;5.366;2022-12-18T03:38:56;-7.40;99.90
26623;DHT22;14254;50.968;5.366;2022-12-18T03:42:05;-7.40;99.90
26623;DHT22;14254;50.968;5.366;2022-12-18T03:44:33;-7.60;99.90
26623;DHT22;14254;50.968;5.366;2022-12-18T03:47:09;-7.60;99.90
26623;DHT22;14254;50.968;5.366;2022-12-18T03:49:45;-7.70;99.90
26623;DHT22;14254;50.968;5.366;2022-12-18T03:52:15;-7.60;99.90
26623;DHT22;14254;50.968;5.366;2022-12-18T03:54:42;-7.60;99.90
26623;DHT22;14254;50.968;5.366;2022-12-18T03:57:16;-7.70;99.90
26623;DHT22;14254;50.968;5.366;2022-12-18T03:59:44;-7.70;99.90
26623;DHT22;14254;50.968;5.366;2022-12-18T04:02:11;-7.70;99.90
26623;DHT22;14254;50.968;5.366;2022-12-18T04:04:38;-7.70;99.90
26623;DHT22;14254;50.968;5.366;2022-12-18T04:07:05;-7.70;99.90
26623;DHT22;14254;50.968;5.366;2022-12-18T04:09:33;-7.80;99.90
26623;DHT22;14254;50.968;5.366;2022-12-18T04:11:59;-8.00;99.90
26623;DHT22;14254;50.968;5.366;2022-12-18T04:14:25;-7.90;99.90
26623;DHT22;14254;50.968;5.366;2022-12-18T04:16:51;-7.90;99.90
26623;DHT22;14254;50.968;5.366;2022-12-18T04:19:16;-7.90;99.90
26623;DHT22;14254;50.968;5.366;2022-12-18T04:21:42;-7.80;99.90
26623;DHT22;14254;50.968;5.366;2022-12-18T04:24:07;-7.80;99.90
26623;DHT22;14254;50.968;5.366;2022-12-18T04:26:34;-7.80;99.90
26623;DHT22;14254;50.968;5.366;2022-12-18T04:28:59;-7.90;99.90
26623;DHT22;14254;50.968;5.366;2022-12-18T04:31:25;-7.80;99.90
26623;DHT22;14254;50.968;5.366;2022-12-18T04:33:51;-7.90;99.90
26623;DHT22;14254;50.968;5.366;2022-12-18T04:36:17;-7.90;99.90
26623;DHT22;14254;50.968;5.366;2022-12-18T04:38:43;-7.90;99.90
26623;DHT22;14254;50.968;5.366;2022-12-18T04:41:09;-7.90;99.90
26623;DHT22;14254;50.968;5.366;2022-12-18T04:43:34;-8.00;99.90
26623;DHT22;14254;50.968;5.366;2022-12-18T04:46:04;-8.00;99.90
26623;DHT22;14254;50.968;5.366;2022-12-18T04:48:31;-8.00;99.90
26623;DHT22;14254;50.968;5.366;2022-12-18T04:50:56;-8.00;99.90
26623;DHT22;14254;50.968;5.366;2022-12-18T04:53:22;-8.00;99.90
26623;DHT22;14254;50.968;5.366;2022-12-18T04:55:47;-7.60;99.90
26623;DHT22;14254;50.968;5.366;2022-12-18T04:58:13;-7.90;99.90
26623;DHT22;14254;50.968;5.366;2022-12-18T05:00:39;-7.90;99.90
26623;DHT22;14254;50.968;5.366;2022-12-18T05:03:04;-8.10;99.90
26623;DHT22;14254;50.968;5.366;2022-12-18T05:05:30;-8.00;99.90
26623;DHT22;14254;50.968;5.366;2022-12-18T05:07:56;-8.00;99.90
26623;DHT22;14254;50.968;5.366;2022-12-18T05:10:22;-7.90;99.90
26623;DHT22;14254;50.968;5.366;2022-12-18T05:12:47;-7.90;99.90
26623;DHT22;14254;50.968;5.366;2022-12-18T05:15:30;-7.90;99.90
26623;DHT22;14254;50.968;5.366;2022-12-18T05:17:57;-8.00;99.90
26623;DHT22;14254;50.968;5.366;2022-12-18T05:20:24;-8.00;99.90
26623;DHT22;14254;50.968;5.366;2022-12-18T05:22:50;-8.00;99.90
26623;DHT22;14254;50.968;5.366;2022-12-18T05:25:16;-8.10;99.90
26623;DHT22;14254;50.968;5.366;2022-12-18T05:27:41;-8.10;99.90
26623;DHT22;14254;50.968;5.366;2022-12-18T05:30:08;-7.90;99.90
26623;DHT22;14254;50.968;5.366;2022-12-18T05:32:34;-8.20;99.90
26623;DHT22;14254;50.968;5.366;2022-12-18T05:35:00;-8.20;99.90
26623;DHT22;14254;50.968;5.366;2022-12-18T05:37:25;-8.20;99.90
26623;DHT22;14254;50.968;5.366;2022-12-18T05:39:51;-8.20;99.90
26623;DHT22;14254;50.968;5.366;2022-12-18T05:42:17;-8.20;99.90
26623;DHT22;14254;50.968;5.366;2022-12-18T05:44:43;-8.10;99.90
26623;DHT22;14254;50.968;5.366;2022-12-18T05:47:09;-8.20;99.90
26623;DHT22;14254;50.968;5.366;2022-12-18T05:49:34;-8.10;99.90
26623;DHT22;14254;50.968;5.366;2022-12-18T05:52:00;-8.20;99.90
26623;DHT22;14254;50.968;5.366;2022-12-18T05:54:29;-8.20;99.90
26623;DHT22;14254;50.968;5.366;2022-12-18T05:56:54;-8.10;99.90
26623;DHT22;14254;50.968;5.366;2022-12-18T05:59:20;-7.90;99.90
26623;DHT22;14254;50.968;5.366;2022-12-18T06:01:46;-7.90;99.90
26623;DHT22;14254;50.968;5.366;2022-12-18T06:04:12;-8.00;99.90
26623;DHT22;14254;50.968;5.366;2022-12-18T06:06:37;-7.90;99.90
26623;DHT22;14254;50.968;5.366;2022-12-18T06:09:03;-8.00;99.90
26623;DHT22;14254;50.968;5.366;2022-12-18T06:11:37;-8.10;99.90
26623;DHT22;14254;50.968;5.366;2022-12-18T06:14:04;-8.10;99.90
26623;DHT22;14254;50.968;5.366;2022-12-18T06:16:30;-8.10;99.90
26623;DHT22;14254;50.968;5.366;2022-12-18T06:19:00;-8.10;99.90
26623;DHT22;14254;50.968;5.366;2022-12-18T06:21:27;-8.20;99.90
26623;DHT22;14254;50.968;5.366;2022-12-18T06:23:53;-8.30;99.90
26623;DHT22;14254;50.968;5.366;2022-12-18T06:26:19;-8.20;99.90
26623;DHT22;14254;50.968;5.366;2022-12-18T06:28:45;-8.10;99.90
26623;DHT22;14254;50.968;5.366;2022-12-18T06:31:11;-8.10;99.90
26623;DHT22;14254;50.968;5.366;2022-12-18T06:33:37;-8.10;99.90
26623;DHT22;14254;50.968;5.366;2022-12-18T06:36:09;-8.10;99.90
26623;DHT22;14254;50.968;5.366;2022-12-18T06:38:35;-8.10;99.90
26623;DHT22;14254;50.968;5.366;2022-12-18T06:41:09;-8.00;99.90
26623;DHT22;14254;50.968;5.366;2022-12-18T06:43:35;-7.90;99.90
26623;DHT22;14254;50.968;5.366;2022-12-18T06:46:01;-7.90;99.90
26623;DHT22;14254;50.968;5.366;2022-12-18T06:48:27;-7.80;99.90
26623;DHT22;14254;50.968;5.366;2022-12-18T06:50:52;-7.70;99.90
26623;DHT22;14254;50.968;5.366;2022-12-18T06:53:18;-7.80;99.90
26623;DHT22;14254;50.968;5.366;2022-12-18T06:55:44;-7.50;99.90
26623;DHT22;14254;50.968;5.366;2022-12-18T06:58:09;-7.70;99.90
26623;DHT22;14254;50.968;5.366;2022-12-18T07:00:35;-7.40;99.90
26623;DHT22;14254;50.968;5.366;2022-12-18T07:03:01;-7.50;99.90
26623;DHT22;14254;50.968;5.366;2022-12-18T07:05:26;-7.60;99.90
26623;DHT22;14254;50.968;5.366;2022-12-18T07:07:52;-7.50;99.90
26623;DHT22;14254;50.968;5.366;2022-12-18T07:10:18;-7.50;99.90
26623;DHT22;14254;50.968;5.366;2022-12-18T07:12:44;-7.50;99.90
26623;DHT22;14254;50.968;5.366;2022-12-18T07:15:10;-7.50;99.90
26623;DHT22;14254;50.968;5.366;2022-12-18T07:17:36;-7.50;99.90
26623;DHT22;14254;50.968;5.366;2022-12-18T07:20:03;-7.60;99.90
26623;DHT22;14254;50.968;5.366;2022-12-18T07:22:29;-7.50;99.90
26623;DHT22;14254;50.968;5.366;2022-12-18T07:24:54;-7.40;99.90
26623;DHT22;14254;50.968;5.366;2022-12-18T07:27:21;-7.30;99.90
26623;DHT22;14254;50.968;5.366;2022-12-18T07:29:47;-7.30;99.90
26623;DHT22;14254;50.968;5.366;2022-12-18T07:32:12;-7.30;99.90
26623;DHT22;14254;50.968;5.366;2022-12-18T07:34:38;-7.10;99.90
26623;DHT22;14254;50.968;5.366;2022-12-18T07:37:04;-7.00;99.90
26623;DHT22;14254;50.968;5.366;2022-12-18T07:39:30;-7.10;99.90
26623;DHT22;14254;50.968;5.366;2022-12-18T07:41:55;-7.10;99.90
26623;DHT22;14254;50.968;5.366;2022-12-18T07:44:40;-7.10;99.90
26623;DHT22;14254;50.968;5.366;2022-12-18T07:47:05;-7.00;99.90
26623;DHT22;14254;50.968;5.366;2022-12-18T07:49:31;-7.00;99.90
26623;DHT22;14254;50.968;5.366;2022-12-18T07:51:57;-6.80;99.90
26623;DHT22;14254;50.968;5.366;2022-12-18T07:54:23;-7.00;99.90
26623;DHT22;14254;50.968;5.366;2022-12-18T07:56:50;-7.00;99.90
26623;DHT22;14254;50.968;5.366;2022-12-18T07:59:15;-7.00;99.90
26623;DHT22;14254;50.968;5.366;2022-12-18T08:01:41;-7.00;99.90
26623;DHT22;14254;50.968;5.366;2022-12-18T08:04:07;-6.80;99.90
26623;DHT22;14254;50.968;5.366;2022-12-18T08:06:32;-6.90;99.90
26623;DHT22;14254;50.968;5.366;2022-12-18T08:08:58;-6.80;99.90
26623;DHT22;14254;50.968;5.366;2022-12-18T08:11:26;-6.80;99.90
26623;DHT22;14254;50.968;5.366;2022-12-18T08:13:52;-6.80;99.90
26623;DHT22;14254;50.968;5.366;2022-12-18T08:16:18;-6.70;99.90
26623;DHT22;14254;50.968;5.366;2022-12-18T08:18:44;-6.80;99.90
26623;DHT22;14254;50.968;5.366;2022-12-18T08:21:18;-6.90;99.90
26623;DHT22;14254;50.968;5.366;2022-12-18T08:23:44;-6.70;99.90
26623;DHT22;14254;50.968;5.366;2022-12-18T08:26:11;-6.50;99.90
26623;DHT22;14254;50.968;5.366;2022-12-18T08:28:37;-6.50;99.90
26623;DHT22;14254;50.968;5.366;2022-12-18T08:31:03;-6.40;99.90
26623;DHT22;14254;50.968;5.366;2022-12-18T08:33:29;-6.30;99.90
26623;DHT22;14254;50.968;5.366;2022-12-18T08:35:54;-6.00;99.90
26623;DHT22;14254;50.968;5.366;2022-12-18T08:38:20;-6.20;99.90
26623;DHT22;14254;50.968;5.366;2022-12-18T08:40:46;-6.20;99.90
26623;DHT22;14254;50.968;5.366;2022-12-18T08:43:12;-6.10;99.90
26623;DHT22;14254;50.968;5.366;2022-12-18T08:45:56;-5.90;99.90
26623;DHT22;14254;50.968;5.366;2022-12-18T08:48:22;-5.60;99.90
26623;DHT22;14254;50.968;5.366;2022-12-18T08:50:58;-5.70;99.90
26623;DHT22;14254;50.968;5.366;2022-12-18T08:53:25;-5.50;99.90
26623;DHT22;14254;50.968;5.366;2022-12-18T08:55:51;-5.30;99.90
26623;DHT22;14254;50.968;5.366;2022-12-18T08:58:17;-5.10;99.90
26623;DHT22;14254;50.968;5.366;2022-12-18T09:00:43;-4.90;99.90
26623;DHT22;14254;50.968;5.366;2022-12-18T09:03:13;-4.70;99.90
26623;DHT22;14254;50.968;5.366;2022-12-18T09:05:38;-4.60;99.90
26623;DHT22;14254;50.968;5.366;2022-12-18T09:08:04;-4.50;99.90
26623;DHT22;14254;50.968;5.366;2022-12-18T09:10:30;-4.40;99.90
26623;DHT22;14254;50.968;5.366;2022-12-18T09:12:55;-4.30;99.90
26623;DHT22;14254;50.968;5.366;2022-12-18T09:15:21;-4.20;99.90
26623;DHT22;14254;50.968;5.366;2022-12-18T09:17:47;-4.10;99.90
26623;DHT22;14254;50.968;5.366;2022-12-18T09:20:15;-4.00;99.90
26623;DHT22;14254;50.968;5.366;2022-12-18T09:22:41;-3.90;99.90
26623;DHT22;14254;50.968;5.366;2022-12-18T09:25:07;-3.60;99.90
26623;DHT22;14254;50.968;5.366;2022-12-18T09:27:34;-3.70;99.90
26623;DHT22;14254;50.968;5.366;2022-12-18T09:29:59;-3.30;99.90
26623;DHT22;14254;50.968;5.366;2022-12-18T09:32:25;-3.50;99.90
26623;DHT22;14254;50.968;5.366;2022-12-18T09:34:51;-3.40;99.90
26623;DHT22;14254;50.968;5.366;2022-12-18T09:37:16;-3.30;99.90
26623;DHT22;14254;50.968;5.366;2022-12-18T09:39:42;-3.10;99.90
26623;DHT22;14254;50.968;5.366;2022-12-18T09:42:20;-3.00;99.90
26623;DHT22;14254;50.968;5.366;2022-12-18T09:44:50;-2.90;99.90
26623;DHT22;14254;50.968;5.366;2022-12-18T09:47:28;-2.60;99.90
26623;DHT22;14254;50.968;5.366;2022-12-18T09:50:02;-2.70;99.90
26623;DHT22;14254;50.968;5.366;2022-12-18T09:52:34;-2.50;99.90
26623;DHT22;14254;50.968;5.366;2022-12-18T09:58:00;-2.10;99.90
26623;DHT22;14254;50.968;5.366;2022-12-18T10:00:28;-1.90;99.90
26623;DHT22;14254;50.968;5.366;2022-12-18T10:03:01;-1.80;99.90
26623;DHT22;14254;50.968;5.366;2022-12-18T10:08:29;-1.40;99.90
26623;DHT22;14254;50.968;5.366;2022-12-18T10:11:03;-1.30;99.90
26623;DHT22;14254;50.968;5.366;2022-12-18T10:13:41;-1.30;99.90
26623;DHT22;14254;50.968;5.366;2022-12-18T10:19:20;-1.10;99.90
26623;DHT22;14254;50.968;5.366;2022-12-18T10:24:38;-0.90;99.90
26623;DHT22;14254;50.968;5.366;2022-12-18T10:27:16;-0.80;99.90
26623;DHT22;14254;50.968;5.366;2022-12-18T10:29:45;-0.70;99.90
26623;DHT22;14254;50.968;5.366;2022-12-18T10:32:18;-0.60;99.90
26623;DHT22;14254;50.968;5.366;2022-12-18T10:34:52;-0.40;99.90
26623;DHT22;14254;50.968;5.366;2022-12-18T10:37:21;-0.50;99.90
26623;DHT22;14254;50.968;5.366;2022-12-18T10:42:32;-0.40;99.90
26623;DHT22;14254;50.968;5.366;2022-12-18T10:45:05;-0.40;99.90
26623;DHT22;14254;50.968;5.366;2022-12-18T10:47:34;-0.40;99.90
26623;DHT22;14254;50.968;5.366;2022-12-18T10:50:00;-0.40;99.90
26623;DHT22;14254;50.968;5.366;2022-12-18T10:52:27;-0.50;99.90
26623;DHT22;14254;50.968;5.366;2022-12-18T10:55:02;-0.50;99.90
26623;DHT22;14254;50.968;5.366;2022-12-18T10:57:39;-0.40;99.90
26623;DHT22;14254;50.968;5.366;2022-12-18T11:02:44;-0.20;99.90
26623;DHT22;14254;50.968;5.366;2022-12-18T11:05:31;-0.10;99.90
26623;DHT22;14254;50.968;5.366;2022-12-18T11:07:58;-0.10;99.90
26623;DHT22;14254;50.968;5.366;2022-12-18T11:13:18;-0.20;99.90
26623;DHT22;14254;50.968;5.366;2022-12-18T11:15:45;-0.10;99.90
26623;DHT22;14254;50.968;5.366;2022-12-18T11:18:24;0.20;99.90
26623;DHT22;14254;50.968;5.366;2022-12-18T11:20:53;0.10;99.90
26623;DHT22;14254;50.968;5.366;2022-12-18T11:23:21;0.20;99.90
26623;DHT22;14254;50.968;5.366;2022-12-18T11:25:56;0.30;99.90
26623;DHT22;14254;50.968;5.366;2022-12-18T11:28:27;0.50;99.90
26623;DHT22;14254;50.968;5.366;2022-12-18T11:33:44;0.40;99.90
26623;DHT22;14254;50.968;5.366;2022-12-18T11:36:10;0.60;99.90
26623;DHT22;14254;50.968;5.366;2022-12-18T11:38:41;1.00;99.90
26623;DHT22;14254;50.968;5.366;2022-12-18T11:43:54;0.80;99.90
26623;DHT22;14254;50.968;5.366;2022-12-18T11:46:33;0.90;99.90
26623;DHT22;14254;50.968;5.366;2022-12-18T11:49:13;1.00;99.90
26623;DHT22;14254;50.968;5.366;2022-12-18T11:54:34;1.20;99.90
26623;DHT22;14254;50.968;5.366;2022-12-18T12:02:41;1.10;99.90
26623;DHT22;14254;50.968;5.366;2022-12-18T12:19:51;1.40;99.90
26623;DHT22;14254;50.968;5.366;2022-12-18T12:33:40;1.50;99.90
26623;DHT22;14254;50.968;5.366;2022-12-18T12:39:01;1.50;99.90
26623;DHT22;14254;50.968;5.366;2022-12-18T12:41:33;1.40;99.90
26623;DHT22;14254;50.968;5.366;2022-12-18T12:44:33;1.30;99.90
26623;DHT22;14254;50.968;5.366;2022-12-18T12:47:13;1.30;99.90
26623;DHT22;14254;50.968;5.366;2022-12-18T12:49:40;1.40;99.90
26623;DHT22;14254;50.968;5.366;2022-12-18T12:52:15;1.30;99.90
26623;DHT22;14254;50.968;5.366;2022-12-18T12:54:43;1.30;99.90
26623;DHT22;14254;50.968;5.366;2022-12-18T12:57:21;1.40;99.90
26623;DHT22;14254;50.968;5.366;2022-12-18T13:00:05;1.30;99.90
26623;DHT22;14254;50.968;5.366;2022-12-18T13:08:30;1.60;99.90
26623;DHT22;14254;50.968;5.366;2022-12-18T13:10:58;1.60;99.90
26623;DHT22;14254;50.968;5.366;2022-12-18T13:13:54;1.80;99.90
26623;DHT22;14254;50.968;5.366;2022-12-18T13:16:23;2.10;99.90
26623;DHT22;14254;50.968;5.366;2022-12-18T13:18:53;2.00;99.90
26623;DHT22;14254;50.968;5.366;2022-12-18T13:23:53;2.20;99.90
26623;DHT22;14254;50.968;5.366;2022-12-18T13:34:17;2.50;99.90
26623;DHT22;14254;50.968;5.366;2022-12-18T13:36:43;2.50;99.90
26623;DHT22;14254;50.968;5.366;2022-12-18T13:41:52;2.60;99.90
26623;DHT22;14254;50.968;5.366;2022-12-18T13:44:31;2.60;99.90
26623;DHT22;14254;50.968;5.366;2022-12-18T13:46:59;2.50;99.90
26623;DHT22;14254;50.968;5.366;2022-12-18T13:49:40;2.60;99.90
26623;DHT22;14254;50.968;5.366;2022-12-18T13:52:19;2.60;99.90
26623;DHT22;14254;50.968;5.366;2022-12-18T13:54:50;2.60;99.90
26623;DHT22;14254;50.968;5.366;2022-12-18T13:57:30;2.50;99.90
26623;DHT22;14254;50.968;5.366;2022-12-18T13:59:57;2.40;99.90
26623;DHT22;14254;50.968;5.366;2022-12-18T14:02:25;2.40;99.90
26623;DHT22;14254;50.968;5.366;2022-12-18T14:04:52;2.40;99.90
26623;DHT22;14254;50.968;5.366;2022-12-18T14:07:19;2.30;99.90
26623;DHT22;14254;50.968;5.366;2022-12-18T14:09:49;2.40;99.90
26623;DHT22;14254;50.968;5.366;2022-12-18T14:12:26;2.40;99.90
26623;DHT22;14254;50.968;5.366;2022-12-18T14:15:33;2.20;99.90
26623;DHT22;14254;50.968;5.366;2022-12-18T14:18:02;2.10;99.90
26623;DHT22;14254;50.968;5.366;2022-12-18T14:20:31;2.00;99.90
26623;DHT22;14254;50.968;5.366;2022-12-18T14:22:58;2.00;99.90
26623;DHT22;14254;50.968;5.366;2022-12-18T14:25:27;1.90;99.90
26623;DHT22;14254;50.968;5.366;2022-12-18T14:28:08;1.90;99.90
26623;DHT22;14254;50.968;5.366;2022-12-18T14:30:45;1.90;99.90
26623;DHT22;14254;50.968;5.366;2022-12-18T14:33:16;1.80;99.90
26623;DHT22;14254;50.968;5.366;2022-12-18T14:36:00;1.80;99.90
26623;DHT22;14254;50.968;5.366;2022-12-18T14:41:06;1.70;99.90
26623;DHT22;14254;50.968;5.366;2022-12-18T14:43:37;1.70;99.90
26623;DHT22;14254;50.968;5.366;2022-12-18T14:46:05;1.70;99.90
26623;DHT22;14254;50.968;5.366;2022-12-18T14:48:38;1.70;99.90
26623;DHT22;14254;50.968;5.366;2022-12-18T14:56:12;1.60;99.90
26623;DHT22;14254;50.968;5.366;2022-12-18T14:58:39;1.60;99.90
26623;DHT22;14254;50.968;5.366;2022-12-18T15:01:05;1.50;99.90
26623;DHT22;14254;50.968;5.366;2022-12-18T15:03:31;1.50;99.90
26623;DHT22;14254;50.968;5.366;2022-12-18T15:06:21;1.30;99.90
26623;DHT22;14254;50.968;5.366;2022-12-18T15:08:49;1.30;99.90
26623;DHT22;14254;50.968;5.366;2022-12-18T15:11:43;1.10;99.90
26623;DHT22;14254;50.968;5.366;2022-12-18T15:16:55;1.10;99.90
26623;DHT22;14254;50.968;5.366;2022-12-18T15:19:28;1.00;99.90
26623;DHT22;14254;50.968;5.366;2022-12-18T15:21:57;1.00;99.90
26623;DHT22;14254;50.968;5.366;2022-12-18T15:24:27;1.10;99.90
26623;DHT22;14254;50.968;5.366;2022-12-18T15:26:55;0.90;99.90
26623;DHT22;14254;50.968;5.366;2022-12-18T15:29:22;0.90;99.90
26623;DHT22;14254;50.968;5.366;2022-12-18T15:32:03;1.00;99.90
26623;DHT22;14254;50.968;5.366;2022-12-18T15:34:30;0.80;99.90
26623;DHT22;14254;50.968;5.366;2022-12-18T15:36:56;0.70;99.90
26623;DHT22;14254;50.968;5.366;2022-12-18T15:39:22;0.70;99.90
26623;DHT22;14254;50.968;5.366;2022-12-18T15:41:48;0.80;99.90
26623;DHT22;14254;50.968;5.366;2022-12-18T15:44:32;0.70;99.90
26623;DHT22;14254;50.968;5.366;2022-12-18T15:46:58;0.70;99.90
26623;DHT22;14254;50.968;5.366;2022-12-18T15:49:24;0.50;99.90
26623;DHT22;14254;50.968;5.366;2022-12-18T15:51:56;0.60;99.90
26623;DHT22;14254;50.968;5.366;2022-12-18T15:54:23;0.70;99.90
26623;DHT22;14254;50.968;5.366;2022-12-18T15:57:10;0.70;99.90
26623;DHT22;14254;50.968;5.366;2022-12-18T15:59:48;0.80;99.90
26623;DHT22;14254;50.968;5.366;2022-12-18T16:02:17;1.00;99.90
26623;DHT22;14254;50.968;5.366;2022-12-18T16:04:43;0.90;99.90
26623;DHT22;14254;50.968;5.366;2022-12-18T16:07:09;0.90;99.90
26623;DHT22;14254;50.968;5.366;2022-12-18T16:09:36;0.90;99.90
26623;DHT22;14254;50.968;5.366;2022-12-18T16:12:02;0.90;99.90
26623;DHT22;14254;50.968;5.366;2022-12-18T16:14:29;0.90;99.90
26623;DHT22;14254;50.968;5.366;2022-12-18T16:17:00;0.90;99.90
26623;DHT22;14254;50.968;5.366;2022-12-18T16:19:27;0.90;99.90
26623;DHT22;14254;50.968;5.366;2022-12-18T16:21:54;0.90;99.90
26623;DHT22;14254;50.968;5.366;2022-12-18T16:24:22;0.90;99.90
26623;DHT22;14254;50.968;5.366;2022-12-18T16:26:49;0.90;99.90
26623;DHT22;14254;50.968;5.366;2022-12-18T16:29:17;0.90;99.90
26623;DHT22;14254;50.968;5.366;2022-12-18T16:31:43;0.90;99.90
26623;DHT22;14254;50.968;5.366;2022-12-18T16:34:45;0.90;99.90
26623;DHT22;14254;50.968;5.366;2022-12-18T16:37:13;1.00;99.90
26623;DHT22;14254;50.968;5.366;2022-12-18T16:39:40;1.00;99.90
26623;DHT22;14254;50.968;5.366;2022-12-18T16:42:14;1.00;99.90
26623;DHT22;14254;50.968;5.366;2022-12-18T16:44:42;1.00;99.90
26623;DHT22;14254;50.968;5.366;2022-12-18T16:47:07;1.00;99.90
26623;DHT22;14254;50.968;5.366;2022-12-18T16:49:33;1.00;99.90
26623;DHT22;14254;50.968;5.366;2022-12-18T16:51:59;1.00;99.90
26623;DHT22;14254;50.968;5.366;2022-12-18T16:54:24;1.00;99.90
26623;DHT22;14254;50.968;5.366;2022-12-18T16:56:51;1.10;99.90
26623;DHT22;14254;50.968;5.366;2022-12-18T16:59:17;1.10;99.90
26623;DHT22;14254;50.968;5.366;2022-12-18T17:01:43;1.10;99.90
26623;DHT22;14254;50.968;5.366;2022-12-18T17:04:09;1.20;99.90
26623;DHT22;14254;50.968;5.366;2022-12-18T17:06:39;1.20;99.90
26623;DHT22;14254;50.968;5.366;2022-12-18T17:09:07;1.20;99.90
26623;DHT22;14254;50.968;5.366;2022-12-18T17:11:34;1.10;99.90
26623;DHT22;14254;50.968;5.366;2022-12-18T17:14:06;1.20;99.90
26623;DHT22;14254;50.968;5.366;2022-12-18T17:16:32;1.10;99.90
26623;DHT22;14254;50.968;5.366;2022-12-18T17:18:58;1.20;99.90
26623;DHT22;14254;50.968;5.366;2022-12-18T17:21:23;1.50;99.90
26623;DHT22;14254;50.968;5.366;2022-12-18T17:23:49;1.30;99.90
26623;DHT22;14254;50.968;5.366;2022-12-18T17:26:15;1.30;99.90
26623;DHT22;14254;50.968;5.366;2022-12-18T17:28:41;1.40;99.90
26623;DHT22;14254;50.968;5.366;2022-12-18T17:31:26;1.40;99.90
26623;DHT22;14254;50.968;5.366;2022-12-18T17:33:53;1.40;99.90
26623;DHT22;14254;50.968;5.366;2022-12-18T17:36:19;1.50;99.90
26623;DHT22;14254;50.968;5.366;2022-12-18T17:38:55;1.50;99.90
26623;DHT22;14254;50.968;5.366;2022-12-18T17:41:21;1.60;99.90
26623;DHT22;14254;50.968;5.366;2022-12-18T17:43:55;1.60;99.90